JAL916 ROAH-RJTT
Flight info
| Callsign | JAL916 |
|---|---|
| Flight time | 1h 57m |
| Altitude | 41000 |
| Route | ESKOB3 AMAMI Y574 SHIBK Y57 SUKBO Y571 BILLY Y21 AKSEL AKSE1A |
| Aircraft | A359/H-SDE2E3FGILRWXY/LB2 |
Departure
| Time | 2026-04-16 13:01 |
|---|---|
| Airport | Naha International Airport (ROAH) |
Arrival
| Time | 2026-04-16 14:59 |
|---|---|
| Airport | Tokyo Haneda International Airport (RJTT) |
| Time | Latitude | Longitude | Altitude | Speed | Heading |
|---|---|---|---|---|---|
| 2026-04-16 12:47 | 26.20551 | 127.64855 | 27 ft | 0 kts | 133° |
| 2026-04-16 12:55 | 26.20555 | 127.64850 | 26 ft | 2 kts | 132° |
| 2026-04-16 12:56 | 26.20568 | 127.64833 | 25 ft | 3 kts | 132° |
| 2026-04-16 12:56 | 26.20581 | 127.64818 | 24 ft | 3 kts | 127° |
| 2026-04-16 12:56 | 26.20591 | 127.64800 | 31 ft | 3 kts | 105° |
| 2026-04-16 12:56 | 26.20593 | 127.64780 | 30 ft | 3 kts | 73° |
| 2026-04-16 12:57 | 26.20584 | 127.64761 | 30 ft | 3 kts | 40° |
| 2026-04-16 12:57 | 26.20568 | 127.64750 | 29 ft | 3 kts | 11° |
| 2026-04-16 12:57 | 26.20556 | 127.64748 | 26 ft | 1 kts | 358° |
| 2026-04-16 12:57 | 26.20538 | 127.64749 | 29 ft | 3 kts | 358° |
| 2026-04-16 12:58 | 26.20519 | 127.64750 | 29 ft | 2 kts | 358° |
| 2026-04-16 12:58 | 26.20516 | 127.64750 | 29 ft | 1 kts | 358° |
| 2026-04-16 13:00 | 26.20523 | 127.64750 | 27 ft | 10 kts | 358° |
| 2026-04-16 13:00 | 26.20754 | 127.64739 | 24 ft | 40 kts | 359° |
| 2026-04-16 13:00 | 26.20897 | 127.64652 | 26 ft | 22 kts | 278° |
| 2026-04-16 13:01 | 26.20828 | 127.64537 | 27 ft | 19 kts | 189° |
| 2026-04-16 13:01 | 26.20425 | 127.64547 | 28 ft | 118 kts | 178° |
| 2026-04-16 13:01 | 26.19306 | 127.64593 | 568 ft | 184 kts | 175° |
| 2026-04-16 13:01 | 26.18060 | 127.64655 | 1599 ft | 175 kts | 173° |
| 2026-04-16 13:02 | 26.16801 | 127.64722 | 2085 ft | 192 kts | 173° |
| 2026-04-16 13:02 | 26.15382 | 127.64799 | 2433 ft | 214 kts | 176° |
| 2026-04-16 13:02 | 26.13866 | 127.64870 | 3018 ft | 221 kts | 177° |
| 2026-04-16 13:02 | 26.12320 | 127.64940 | 3653 ft | 224 kts | 178° |
| 2026-04-16 13:03 | 26.10751 | 127.65010 | 4297 ft | 227 kts | 178° |
| 2026-04-16 13:03 | 26.09180 | 127.65082 | 4898 ft | 232 kts | 179° |
| 2026-04-16 13:03 | 26.07492 | 127.65158 | 5260 ft | 255 kts | 179° |
| 2026-04-16 13:03 | 26.05650 | 127.65242 | 5741 ft | 272 kts | 180° |
| 2026-04-16 13:04 | 26.03750 | 127.65582 | 6417 ft | 283 kts | 163° |
| 2026-04-16 13:04 | 26.02042 | 127.66711 | 7074 ft | 293 kts | 137° |
| 2026-04-16 13:04 | 26.00917 | 127.68621 | 7799 ft | 299 kts | 109° |
| 2026-04-16 13:04 | 26.00663 | 127.70897 | 8553 ft | 298 kts | 82° |
| 2026-04-16 13:05 | 26.00997 | 127.73176 | 9316 ft | 300 kts | 79° |
| 2026-04-16 13:05 | 26.01526 | 127.75422 | 10009 ft | 303 kts | 65° |
| 2026-04-16 13:05 | 26.02659 | 127.77408 | 10434 ft | 311 kts | 44° |
| 2026-04-16 13:05 | 26.04349 | 127.78998 | 10692 ft | 327 kts | 36° |
| 2026-04-16 13:06 | 26.05999 | 127.80844 | 10923 ft | 346 kts | 46° |
| 2026-04-16 13:06 | 26.07575 | 127.82929 | 11290 ft | 357 kts | 48° |
| 2026-04-16 13:06 | 26.09161 | 127.85093 | 11838 ft | 362 kts | 48° |
| 2026-04-16 13:06 | 26.10739 | 127.87256 | 12318 ft | 367 kts | 48° |
| 2026-04-16 13:07 | 26.12361 | 127.89481 | 12868 ft | 371 kts | 48° |
| 2026-04-16 13:07 | 26.13998 | 127.91729 | 13402 ft | 374 kts | 48° |
| 2026-04-16 13:07 | 26.15654 | 127.93977 | 13925 ft | 377 kts | 46° |
| 2026-04-16 13:07 | 26.17529 | 127.96017 | 14366 ft | 376 kts | 35° |
| 2026-04-16 13:08 | 26.19686 | 127.97653 | 14883 ft | 376 kts | 28° |
| 2026-04-16 13:08 | 26.21931 | 127.99171 | 15323 ft | 379 kts | 27° |
| 2026-04-16 13:08 | 26.24201 | 128.00690 | 15787 ft | 382 kts | 27° |
| 2026-04-16 13:08 | 26.26455 | 128.02203 | 16244 ft | 385 kts | 27° |
| 2026-04-16 13:09 | 26.28791 | 128.03776 | 16685 ft | 389 kts | 27° |
| 2026-04-16 13:09 | 26.31083 | 128.05323 | 17109 ft | 392 kts | 27° |
| 2026-04-16 13:09 | 26.33426 | 128.06907 | 17568 ft | 395 kts | 28° |
| 2026-04-16 13:09 | 26.35787 | 128.08504 | 18004 ft | 399 kts | 28° |
| 2026-04-16 13:10 | 26.38168 | 128.10117 | 18418 ft | 402 kts | 28° |
| 2026-04-16 13:10 | 26.40565 | 128.11741 | 18791 ft | 405 kts | 27° |
| 2026-04-16 13:10 | 26.42983 | 128.13380 | 19158 ft | 408 kts | 27° |
| 2026-04-16 13:10 | 26.45423 | 128.15035 | 19521 ft | 411 kts | 27° |
| 2026-04-16 13:11 | 26.47877 | 128.16701 | 19892 ft | 415 kts | 27° |
| 2026-04-16 13:11 | 26.50355 | 128.18383 | 20229 ft | 419 kts | 27° |
| 2026-04-16 13:11 | 26.52850 | 128.20078 | 20597 ft | 421 kts | 27° |
| 2026-04-16 13:11 | 26.55359 | 128.21784 | 20975 ft | 423 kts | 27° |
| 2026-04-16 13:12 | 26.57882 | 128.23500 | 21338 ft | 426 kts | 27° |
| 2026-04-16 13:12 | 26.60423 | 128.25229 | 21681 ft | 429 kts | 27° |
| 2026-04-16 13:12 | 26.62985 | 128.26974 | 22029 ft | 432 kts | 27° |
| 2026-04-16 13:12 | 26.65564 | 128.28735 | 22320 ft | 437 kts | 27° |
| 2026-04-16 13:13 | 26.68078 | 128.30714 | 22471 ft | 449 kts | 35° |
| 2026-04-16 13:13 | 26.70328 | 128.33206 | 22610 ft | 461 kts | 46° |
| 2026-04-16 13:13 | 26.72377 | 128.36011 | 22741 ft | 469 kts | 48° |
| 2026-04-16 13:13 | 26.74413 | 128.38894 | 22872 ft | 476 kts | 49° |
| 2026-04-16 13:14 | 26.76478 | 128.41820 | 23006 ft | 482 kts | 48° |
| 2026-04-16 13:14 | 26.78569 | 128.44776 | 23112 ft | 487 kts | 48° |
| 2026-04-16 13:14 | 26.80686 | 128.47764 | 23215 ft | 492 kts | 48° |
| 2026-04-16 13:14 | 26.82827 | 128.50787 | 23336 ft | 497 kts | 48° |
| 2026-04-16 13:15 | 26.84989 | 128.53837 | 23456 ft | 502 kts | 48° |
| 2026-04-16 13:15 | 26.87168 | 128.56913 | 23552 ft | 507 kts | 48° |
| 2026-04-16 13:15 | 26.89368 | 128.60021 | 23639 ft | 511 kts | 48° |
| 2026-04-16 13:15 | 26.91629 | 128.63109 | 23708 ft | 513 kts | 44° |
| 2026-04-16 13:16 | 26.94241 | 128.65815 | 23816 ft | 510 kts | 33° |
| 2026-04-16 13:16 | 26.97222 | 128.67930 | 23998 ft | 506 kts | 25° |
| 2026-04-16 13:16 | 27.00309 | 128.69819 | 24158 ft | 506 kts | 24° |
| 2026-04-16 13:16 | 27.03422 | 128.71692 | 24345 ft | 508 kts | 24° |
| 2026-04-16 13:17 | 27.06530 | 128.73565 | 24516 ft | 509 kts | 24° |
| 2026-04-16 13:17 | 27.09625 | 128.75437 | 24711 ft | 510 kts | 24° |
| 2026-04-16 13:17 | 27.12750 | 128.77331 | 24881 ft | 510 kts | 24° |
| 2026-04-16 13:17 | 27.15865 | 128.79224 | 25302 ft | 506 kts | 24° |
| 2026-04-16 13:18 | 27.18936 | 128.81092 | 25857 ft | 499 kts | 24° |
| 2026-04-16 13:18 | 27.21974 | 128.82942 | 26449 ft | 493 kts | 24° |
| 2026-04-16 13:18 | 27.24974 | 128.84770 | 27041 ft | 488 kts | 24° |
| 2026-04-16 13:18 | 27.27941 | 128.86577 | 27662 ft | 483 kts | 24° |
| 2026-04-16 13:19 | 27.30884 | 128.88371 | 28302 ft | 478 kts | 23° |
| 2026-04-16 13:19 | 27.33796 | 128.90148 | 28949 ft | 474 kts | 23° |
| 2026-04-16 13:19 | 27.36707 | 128.91922 | 29309 ft | 478 kts | 23° |
| 2026-04-16 13:19 | 27.39666 | 128.93724 | 29499 ft | 486 kts | 23° |
| 2026-04-16 13:20 | 27.42617 | 128.95524 | 29666 ft | 493 kts | 24° |
| 2026-04-16 13:20 | 27.45657 | 128.97381 | 29856 ft | 500 kts | 24° |
| 2026-04-16 13:20 | 27.48738 | 128.99265 | 30026 ft | 506 kts | 24° |
| 2026-04-16 13:20 | 27.51854 | 129.01172 | 30181 ft | 513 kts | 24° |
| 2026-04-16 13:21 | 27.55000 | 129.03099 | 30309 ft | 518 kts | 24° |
| 2026-04-16 13:21 | 27.58183 | 129.05051 | 30433 ft | 524 kts | 24° |
| 2026-04-16 13:21 | 27.61397 | 129.07023 | 30548 ft | 528 kts | 24° |
| 2026-04-16 13:21 | 27.64640 | 129.09014 | 30656 ft | 533 kts | 24° |
| 2026-04-16 13:22 | 27.67910 | 129.11023 | 30754 ft | 537 kts | 24° |
| 2026-04-16 13:22 | 27.71201 | 129.13047 | 30890 ft | 539 kts | 24° |
| 2026-04-16 13:22 | 27.74495 | 129.15075 | 31101 ft | 539 kts | 24° |
| 2026-04-16 13:22 | 27.77787 | 129.17103 | 31312 ft | 539 kts | 24° |
| 2026-04-16 13:23 | 27.81082 | 129.19134 | 31542 ft | 539 kts | 24° |
| 2026-04-16 13:23 | 27.84376 | 129.21164 | 31754 ft | 539 kts | 24° |
| 2026-04-16 13:23 | 27.87665 | 129.23194 | 31975 ft | 539 kts | 24° |
| 2026-04-16 13:23 | 27.90935 | 129.25213 | 32211 ft | 539 kts | 23° |
| 2026-04-16 13:24 | 27.94226 | 129.27245 | 32442 ft | 539 kts | 23° |
| 2026-04-16 13:24 | 27.97520 | 129.29281 | 32686 ft | 539 kts | 23° |
| 2026-04-16 13:24 | 28.00806 | 129.31315 | 32957 ft | 538 kts | 23° |
| 2026-04-16 13:24 | 28.04093 | 129.33349 | 33226 ft | 538 kts | 23° |
| 2026-04-16 13:25 | 28.07375 | 129.35382 | 33484 ft | 538 kts | 23° |
| 2026-04-16 13:25 | 28.10655 | 129.37416 | 33794 ft | 537 kts | 23° |
| 2026-04-16 13:25 | 28.13933 | 129.39449 | 34079 ft | 537 kts | 23° |
| 2026-04-16 13:25 | 28.17213 | 129.41486 | 34346 ft | 537 kts | 23° |
| 2026-04-16 13:26 | 28.20491 | 129.43523 | 34457 ft | 540 kts | 22° |
| 2026-04-16 13:26 | 28.23797 | 129.45578 | 34558 ft | 542 kts | 22° |
| 2026-04-16 13:26 | 28.27105 | 129.47635 | 34690 ft | 543 kts | 22° |
| 2026-04-16 13:26 | 28.30421 | 129.49699 | 34812 ft | 543 kts | 22° |
| 2026-04-16 13:27 | 28.33740 | 129.51764 | 34982 ft | 543 kts | 22° |
| 2026-04-16 13:27 | 28.36992 | 129.53976 | 35120 ft | 550 kts | 29° |
| 2026-04-16 13:27 | 28.39961 | 129.56774 | 35162 ft | 562 kts | 40° |
| 2026-04-16 13:27 | 28.42447 | 129.60232 | 35171 ft | 570 kts | 53° |
| 2026-04-16 13:28 | 28.44311 | 129.64229 | 35255 ft | 577 kts | 65° |
| 2026-04-16 13:28 | 28.45462 | 129.68610 | 35259 ft | 581 kts | 78° |
| 2026-04-16 13:28 | 28.46126 | 129.73154 | 35254 ft | 583 kts | 81° |
| 2026-04-16 13:29 | 28.47114 | 129.82297 | 35251 ft | 583 kts | 83° |
| 2026-04-16 13:29 | 28.48004 | 129.91443 | 35290 ft | 582 kts | 83° |
| 2026-04-16 13:30 | 28.48935 | 130.00542 | 35345 ft | 582 kts | 82° |
| 2026-04-16 13:30 | 28.49415 | 130.05086 | 35700 ft | 576 kts | 82° |
| 2026-04-16 13:30 | 28.49979 | 130.09569 | 36179 ft | 570 kts | 77° |
| 2026-04-16 13:30 | 28.51037 | 130.13872 | 36676 ft | 563 kts | 67° |
| 2026-04-16 13:31 | 28.52683 | 130.17869 | 37177 ft | 555 kts | 56° |
| 2026-04-16 13:31 | 28.54711 | 130.21585 | 37692 ft | 550 kts | 53° |
| 2026-04-16 13:31 | 28.56828 | 130.25196 | 38238 ft | 547 kts | 51° |
| 2026-04-16 13:31 | 28.58985 | 130.28749 | 38771 ft | 544 kts | 51° |
| 2026-04-16 13:32 | 28.61146 | 130.32267 | 39210 ft | 541 kts | 51° |
| 2026-04-16 13:32 | 28.63293 | 130.35761 | 39681 ft | 538 kts | 51° |
| 2026-04-16 13:32 | 28.65426 | 130.39250 | 40156 ft | 534 kts | 51° |
| 2026-04-16 13:32 | 28.67535 | 130.42719 | 40637 ft | 531 kts | 51° |
| 2026-04-16 13:33 | 28.69630 | 130.46182 | 40949 ft | 532 kts | 51° |
| 2026-04-16 13:33 | 28.73877 | 130.53219 | 41029 ft | 546 kts | 52° |
| 2026-04-16 13:34 | 28.77546 | 130.59322 | 41032 ft | 558 kts | 52° |
| 2026-04-16 13:34 | 28.81971 | 130.66683 | 41034 ft | 565 kts | 52° |
| 2026-04-16 13:35 | 28.86410 | 130.74084 | 41043 ft | 565 kts | 52° |
| 2026-04-16 13:35 | 28.90844 | 130.81490 | 41037 ft | 565 kts | 52° |
| 2026-04-16 13:36 | 28.95282 | 130.88915 | 41038 ft | 566 kts | 52° |
| 2026-04-16 13:36 | 28.99708 | 130.96332 | 41051 ft | 565 kts | 52° |
| 2026-04-16 13:37 | 29.04106 | 131.03714 | 41040 ft | 566 kts | 52° |
| 2026-04-16 13:37 | 29.08533 | 131.11159 | 41040 ft | 566 kts | 52° |
| 2026-04-16 13:38 | 29.12952 | 131.18603 | 41043 ft | 566 kts | 52° |
| 2026-04-16 13:38 | 29.17365 | 131.26051 | 41042 ft | 566 kts | 52° |
| 2026-04-16 13:39 | 29.21777 | 131.33510 | 41042 ft | 566 kts | 52° |
| 2026-04-16 13:39 | 29.26184 | 131.40974 | 41054 ft | 566 kts | 52° |
| 2026-04-16 13:40 | 29.30590 | 131.48450 | 41045 ft | 566 kts | 52° |
| 2026-04-16 13:40 | 29.34993 | 131.55936 | 41048 ft | 566 kts | 52° |
| 2026-04-16 13:41 | 29.39391 | 131.63434 | 41069 ft | 566 kts | 52° |
| 2026-04-16 13:41 | 29.43788 | 131.70941 | 41044 ft | 567 kts | 52° |
| 2026-04-16 13:42 | 29.48161 | 131.78416 | 41059 ft | 567 kts | 52° |
| 2026-04-16 13:42 | 29.52552 | 131.85941 | 41057 ft | 567 kts | 52° |
| 2026-04-16 13:43 | 29.56941 | 131.93474 | 41055 ft | 568 kts | 52° |
| 2026-04-16 13:43 | 29.61329 | 132.01022 | 41054 ft | 568 kts | 52° |
| 2026-04-16 13:44 | 29.65814 | 132.08481 | 41087 ft | 565 kts | 46° |
| 2026-04-16 13:44 | 29.70722 | 132.15529 | 41058 ft | 564 kts | 46° |
| 2026-04-16 13:45 | 29.75691 | 132.22505 | 41062 ft | 564 kts | 45° |
| 2026-04-16 13:45 | 29.80673 | 132.29480 | 41077 ft | 564 kts | 45° |
| 2026-04-16 13:46 | 29.85649 | 132.36472 | 41067 ft | 564 kts | 45° |
| 2026-04-16 13:46 | 29.90588 | 132.43436 | 41068 ft | 564 kts | 45° |
| 2026-04-16 13:47 | 29.95548 | 132.50444 | 41077 ft | 564 kts | 45° |
| 2026-04-16 13:47 | 30.00510 | 132.57467 | 41075 ft | 564 kts | 45° |
| 2026-04-16 13:48 | 30.05463 | 132.64489 | 41074 ft | 564 kts | 45° |
| 2026-04-16 13:48 | 30.10421 | 132.71530 | 41077 ft | 565 kts | 45° |
| 2026-04-16 13:49 | 30.15382 | 132.78587 | 41082 ft | 566 kts | 45° |
| 2026-04-16 13:49 | 30.20341 | 132.85655 | 41088 ft | 566 kts | 45° |
| 2026-04-16 13:50 | 30.25301 | 132.92736 | 41079 ft | 567 kts | 45° |
| 2026-04-16 13:50 | 30.30264 | 132.99835 | 41076 ft | 567 kts | 45° |
| 2026-04-16 13:51 | 30.35225 | 133.06944 | 41090 ft | 567 kts | 45° |
| 2026-04-16 13:51 | 30.40183 | 133.14061 | 41090 ft | 568 kts | 45° |
| 2026-04-16 13:52 | 30.45109 | 133.21145 | 41087 ft | 568 kts | 45° |
| 2026-04-16 13:52 | 30.50064 | 133.28283 | 41092 ft | 568 kts | 45° |
| 2026-04-16 13:53 | 30.55018 | 133.35432 | 41089 ft | 567 kts | 45° |
| 2026-04-16 13:53 | 30.59956 | 133.42572 | 41102 ft | 568 kts | 45° |
| 2026-04-16 13:54 | 30.64901 | 133.49735 | 41096 ft | 568 kts | 45° |
| 2026-04-16 13:54 | 30.69833 | 133.56890 | 41096 ft | 568 kts | 45° |
| 2026-04-16 13:55 | 30.74734 | 133.64016 | 41099 ft | 568 kts | 45° |
| 2026-04-16 13:55 | 30.79662 | 133.71192 | 41099 ft | 568 kts | 45° |
| 2026-04-16 13:56 | 30.84585 | 133.78382 | 41119 ft | 568 kts | 45° |
| 2026-04-16 13:56 | 30.89512 | 133.85575 | 41097 ft | 568 kts | 45° |
| 2026-04-16 13:57 | 30.94442 | 133.92784 | 41104 ft | 568 kts | 45° |
| 2026-04-16 13:57 | 30.99360 | 133.99992 | 41103 ft | 568 kts | 45° |
| 2026-04-16 13:58 | 31.06728 | 134.10821 | 41100 ft | 568 kts | 45° |
| 2026-04-16 13:58 | 31.11605 | 134.18004 | 41104 ft | 569 kts | 45° |
| 2026-04-16 13:59 | 31.16516 | 134.25249 | 41106 ft | 569 kts | 45° |
| 2026-04-16 13:59 | 31.21428 | 134.32512 | 41132 ft | 569 kts | 45° |
| 2026-04-16 14:00 | 31.26336 | 134.39781 | 41112 ft | 570 kts | 45° |
| 2026-04-16 14:00 | 31.31241 | 134.47060 | 41108 ft | 570 kts | 45° |
| 2026-04-16 14:01 | 31.36150 | 134.54359 | 41108 ft | 570 kts | 45° |
| 2026-04-16 14:01 | 31.41051 | 134.61658 | 41103 ft | 570 kts | 45° |
| 2026-04-16 14:02 | 31.45944 | 134.68961 | 41138 ft | 570 kts | 45° |
| 2026-04-16 14:02 | 31.50833 | 134.76271 | 41115 ft | 570 kts | 45° |
| 2026-04-16 14:03 | 31.55729 | 134.83605 | 41115 ft | 571 kts | 45° |
| 2026-04-16 14:03 | 31.60617 | 134.90943 | 41117 ft | 570 kts | 45° |
| 2026-04-16 14:04 | 31.65493 | 134.98274 | 41116 ft | 570 kts | 45° |
| 2026-04-16 14:04 | 31.70370 | 135.05621 | 41118 ft | 570 kts | 46° |
| 2026-04-16 14:05 | 31.75358 | 135.12831 | 41118 ft | 566 kts | 41° |
| 2026-04-16 14:05 | 31.80654 | 135.19568 | 41116 ft | 564 kts | 39° |
| 2026-04-16 14:06 | 31.86002 | 135.26317 | 41121 ft | 564 kts | 40° |
| 2026-04-16 14:06 | 31.91294 | 135.33152 | 41124 ft | 565 kts | 41° |
| 2026-04-16 14:07 | 31.96559 | 135.40044 | 41130 ft | 565 kts | 41° |
| 2026-04-16 14:07 | 32.01806 | 135.46940 | 41124 ft | 566 kts | 41° |
| 2026-04-16 14:08 | 32.07062 | 135.53855 | 41127 ft | 566 kts | 41° |
| 2026-04-16 14:08 | 32.12313 | 135.60769 | 41130 ft | 566 kts | 41° |
| 2026-04-16 14:09 | 32.17571 | 135.67687 | 41124 ft | 566 kts | 41° |
| 2026-04-16 14:09 | 32.22816 | 135.74622 | 41143 ft | 567 kts | 41° |
| 2026-04-16 14:10 | 32.28055 | 135.81570 | 41135 ft | 565 kts | 41° |
| 2026-04-16 14:10 | 32.33280 | 135.88507 | 41133 ft | 564 kts | 41° |
| 2026-04-16 14:11 | 32.38498 | 135.95440 | 41131 ft | 564 kts | 41° |
| 2026-04-16 14:11 | 32.43715 | 136.02390 | 41133 ft | 563 kts | 41° |
| 2026-04-16 14:12 | 32.48910 | 136.09318 | 41132 ft | 562 kts | 41° |
| 2026-04-16 14:12 | 32.54100 | 136.16238 | 41133 ft | 562 kts | 41° |
| 2026-04-16 14:13 | 32.59283 | 136.23165 | 41135 ft | 560 kts | 41° |
| 2026-04-16 14:13 | 32.64411 | 136.30034 | 41138 ft | 560 kts | 41° |
| 2026-04-16 14:14 | 32.69572 | 136.36960 | 41178 ft | 560 kts | 41° |
| 2026-04-16 14:14 | 32.74708 | 136.43873 | 41140 ft | 557 kts | 40° |
| 2026-04-16 14:15 | 32.79834 | 136.50779 | 41143 ft | 556 kts | 40° |
| 2026-04-16 14:15 | 32.84086 | 136.56514 | 41143 ft | 556 kts | 40° |
| 2026-04-16 14:16 | 32.89187 | 136.63411 | 41144 ft | 555 kts | 40° |
| 2026-04-16 14:16 | 32.95120 | 136.71448 | 41143 ft | 555 kts | 40° |
| 2026-04-16 14:17 | 32.99386 | 136.77227 | 41156 ft | 555 kts | 40° |
| 2026-04-16 14:17 | 33.04481 | 136.84141 | 41149 ft | 555 kts | 40° |
| 2026-04-16 14:18 | 33.09566 | 136.91058 | 41149 ft | 555 kts | 40° |
| 2026-04-16 14:18 | 33.14646 | 136.97980 | 41168 ft | 555 kts | 40° |
| 2026-04-16 14:19 | 33.19691 | 137.04873 | 41148 ft | 554 kts | 40° |
| 2026-04-16 14:19 | 33.24755 | 137.11805 | 41150 ft | 554 kts | 40° |
| 2026-04-16 14:20 | 33.29812 | 137.18744 | 41153 ft | 553 kts | 40° |
| 2026-04-16 14:20 | 33.34870 | 137.25689 | 41152 ft | 553 kts | 40° |
| 2026-04-16 14:21 | 33.39925 | 137.32645 | 41153 ft | 553 kts | 40° |
| 2026-04-16 14:21 | 33.44977 | 137.39612 | 41157 ft | 554 kts | 40° |
| 2026-04-16 14:22 | 33.50022 | 137.46586 | 41155 ft | 554 kts | 40° |
| 2026-04-16 14:22 | 33.55063 | 137.53566 | 41154 ft | 554 kts | 40° |
| 2026-04-16 14:23 | 33.60057 | 137.60608 | 41165 ft | 559 kts | 44° |
| 2026-04-16 14:23 | 33.64198 | 137.68569 | 41154 ft | 569 kts | 53° |
| 2026-04-16 14:24 | 33.68045 | 137.76893 | 41173 ft | 571 kts | 53° |
| 2026-04-16 14:24 | 33.71830 | 137.85277 | 41161 ft | 571 kts | 54° |
| 2026-04-16 14:25 | 33.75629 | 137.93671 | 41151 ft | 571 kts | 53° |
| 2026-04-16 14:25 | 33.79435 | 138.02049 | 41170 ft | 571 kts | 53° |
| 2026-04-16 14:26 | 33.83247 | 138.10439 | 41157 ft | 571 kts | 53° |
| 2026-04-16 14:26 | 33.87051 | 138.18835 | 41156 ft | 571 kts | 54° |
| 2026-04-16 14:27 | 33.90833 | 138.27204 | 41164 ft | 572 kts | 54° |
| 2026-04-16 14:27 | 33.94616 | 138.35631 | 41128 ft | 568 kts | 54° |
| 2026-04-16 14:28 | 33.96467 | 138.39809 | 40918 ft | 561 kts | 54° |
| 2026-04-16 14:28 | 33.98295 | 138.43946 | 40692 ft | 558 kts | 54° |
| 2026-04-16 14:28 | 34.00123 | 138.48075 | 40465 ft | 558 kts | 54° |
| 2026-04-16 14:28 | 34.01955 | 138.52207 | 40241 ft | 557 kts | 54° |
| 2026-04-16 14:29 | 34.03781 | 138.56327 | 39997 ft | 557 kts | 54° |
| 2026-04-16 14:29 | 34.05602 | 138.60441 | 39576 ft | 554 kts | 54° |
| 2026-04-16 14:29 | 34.07408 | 138.64528 | 39019 ft | 551 kts | 54° |
| 2026-04-16 14:29 | 34.09202 | 138.68595 | 38359 ft | 548 kts | 54° |
| 2026-04-16 14:30 | 34.10984 | 138.72639 | 37624 ft | 545 kts | 54° |
| 2026-04-16 14:30 | 34.12737 | 138.76623 | 36920 ft | 542 kts | 53° |
| 2026-04-16 14:30 | 34.14496 | 138.80624 | 36215 ft | 538 kts | 53° |
| 2026-04-16 14:30 | 34.16248 | 138.84610 | 35500 ft | 535 kts | 53° |
| 2026-04-16 14:31 | 34.17988 | 138.88576 | 34823 ft | 532 kts | 53° |
| 2026-04-16 14:31 | 34.19710 | 138.92504 | 34108 ft | 528 kts | 53° |
| 2026-04-16 14:31 | 34.21424 | 138.96418 | 33216 ft | 526 kts | 53° |
| 2026-04-16 14:31 | 34.23134 | 139.00327 | 32258 ft | 525 kts | 53° |
| 2026-04-16 14:32 | 34.24840 | 139.04222 | 31294 ft | 524 kts | 54° |
| 2026-04-16 14:32 | 34.26543 | 139.08112 | 30343 ft | 523 kts | 54° |
| 2026-04-16 14:32 | 34.28200 | 139.12027 | 29359 ft | 523 kts | 58° |
| 2026-04-16 14:32 | 34.29675 | 139.16034 | 28260 ft | 522 kts | 59° |
| 2026-04-16 14:33 | 34.31106 | 139.20070 | 27188 ft | 520 kts | 60° |
| 2026-04-16 14:33 | 34.32499 | 139.24092 | 26254 ft | 516 kts | 60° |
| 2026-04-16 14:33 | 34.33833 | 139.27990 | 25392 ft | 510 kts | 61° |
| 2026-04-16 14:33 | 34.35181 | 139.31939 | 24568 ft | 504 kts | 61° |
| 2026-04-16 14:34 | 34.36511 | 139.35840 | 23756 ft | 497 kts | 61° |
| 2026-04-16 14:34 | 34.37821 | 139.39676 | 22863 ft | 489 kts | 61° |
| 2026-04-16 14:34 | 34.39091 | 139.43389 | 22059 ft | 479 kts | 61° |
| 2026-04-16 14:34 | 34.40355 | 139.47087 | 21267 ft | 470 kts | 62° |
| 2026-04-16 14:35 | 34.41594 | 139.50708 | 20484 ft | 461 kts | 62° |
| 2026-04-16 14:35 | 34.42807 | 139.54258 | 19740 ft | 452 kts | 62° |
| 2026-04-16 14:35 | 34.43995 | 139.57734 | 19004 ft | 442 kts | 62° |
| 2026-04-16 14:35 | 34.45158 | 139.61141 | 18230 ft | 433 kts | 62° |
| 2026-04-16 14:36 | 34.46297 | 139.64478 | 17362 ft | 425 kts | 62° |
| 2026-04-16 14:36 | 34.47421 | 139.67753 | 16600 ft | 414 kts | 61° |
| 2026-04-16 14:36 | 34.48815 | 139.70671 | 16228 ft | 387 kts | 48° |
| 2026-04-16 14:36 | 34.50631 | 139.72868 | 15838 ft | 351 kts | 33° |
| 2026-04-16 14:37 | 34.52546 | 139.74465 | 15400 ft | 319 kts | 29° |
| 2026-04-16 14:37 | 34.54344 | 139.75835 | 15015 ft | 292 kts | 28° |
| 2026-04-16 14:37 | 34.56003 | 139.77075 | 14640 ft | 269 kts | 28° |
| 2026-04-16 14:37 | 34.57553 | 139.78223 | 14089 ft | 256 kts | 28° |
| 2026-04-16 14:38 | 34.59060 | 139.79333 | 13451 ft | 247 kts | 29° |
| 2026-04-16 14:38 | 34.60457 | 139.80364 | 13299 ft | 224 kts | 29° |
| 2026-04-16 14:38 | 34.61748 | 139.81316 | 13189 ft | 217 kts | 29° |
| 2026-04-16 14:38 | 34.63058 | 139.82277 | 13050 ft | 221 kts | 29° |
| 2026-04-16 14:39 | 34.64369 | 139.83241 | 12807 ft | 220 kts | 30° |
| 2026-04-16 14:39 | 34.65673 | 139.84201 | 12576 ft | 219 kts | 30° |
| 2026-04-16 14:39 | 34.66974 | 139.85159 | 12317 ft | 218 kts | 30° |
| 2026-04-16 14:39 | 34.68304 | 139.86141 | 12180 ft | 231 kts | 30° |
| 2026-04-16 14:40 | 34.69702 | 139.87174 | 12165 ft | 238 kts | 30° |
| 2026-04-16 14:40 | 34.71121 | 139.88220 | 12173 ft | 238 kts | 30° |
| 2026-04-16 14:40 | 34.72541 | 139.89267 | 12175 ft | 238 kts | 30° |
| 2026-04-16 14:40 | 34.73958 | 139.90313 | 12176 ft | 238 kts | 30° |
| 2026-04-16 14:41 | 34.75379 | 139.91361 | 12179 ft | 239 kts | 30° |
| 2026-04-16 14:41 | 34.76798 | 139.92410 | 12179 ft | 239 kts | 30° |
| 2026-04-16 14:41 | 34.78221 | 139.93462 | 12178 ft | 240 kts | 30° |
| 2026-04-16 14:41 | 34.79635 | 139.94538 | 12177 ft | 240 kts | 33° |
| 2026-04-16 14:42 | 34.80835 | 139.95955 | 12178 ft | 244 kts | 51° |
| 2026-04-16 14:42 | 34.81506 | 139.97873 | 12183 ft | 252 kts | 71° |
| 2026-04-16 14:42 | 34.81791 | 139.99985 | 12175 ft | 255 kts | 76° |
| 2026-04-16 14:42 | 34.82010 | 140.02129 | 12175 ft | 255 kts | 76° |
| 2026-04-16 14:43 | 34.82230 | 140.04272 | 12176 ft | 255 kts | 76° |
| 2026-04-16 14:43 | 34.82454 | 140.06381 | 12176 ft | 255 kts | 76° |
| 2026-04-16 14:43 | 34.82686 | 140.08521 | 12176 ft | 255 kts | 76° |
| 2026-04-16 14:43 | 34.82989 | 140.10632 | 12174 ft | 251 kts | 68° |
| 2026-04-16 14:44 | 34.83596 | 140.12602 | 12176 ft | 247 kts | 59° |
| 2026-04-16 14:44 | 34.84517 | 140.14334 | 12177 ft | 243 kts | 47° |
| 2026-04-16 14:44 | 34.85628 | 140.15874 | 12178 ft | 242 kts | 44° |
| 2026-04-16 14:44 | 34.86789 | 140.17356 | 12178 ft | 241 kts | 43° |
| 2026-04-16 14:45 | 34.87964 | 140.18812 | 12178 ft | 241 kts | 43° |
| 2026-04-16 14:45 | 34.89149 | 140.20261 | 12184 ft | 241 kts | 42° |
| 2026-04-16 14:45 | 34.90332 | 140.21697 | 12179 ft | 240 kts | 42° |
| 2026-04-16 14:45 | 34.91515 | 140.23130 | 12178 ft | 239 kts | 42° |
| 2026-04-16 14:46 | 34.92697 | 140.24557 | 12180 ft | 239 kts | 42° |
| 2026-04-16 14:46 | 34.93879 | 140.25984 | 12181 ft | 239 kts | 42° |
| 2026-04-16 14:46 | 34.95048 | 140.27396 | 12181 ft | 239 kts | 42° |
| 2026-04-16 14:46 | 34.96230 | 140.28822 | 12181 ft | 239 kts | 42° |
| 2026-04-16 14:47 | 34.97460 | 140.30200 | 12184 ft | 246 kts | 36° |
| 2026-04-16 14:47 | 34.99004 | 140.31266 | 12167 ft | 263 kts | 21° |
| 2026-04-16 14:47 | 35.00836 | 140.31601 | 12155 ft | 280 kts | 360° |
| 2026-04-16 14:47 | 35.02861 | 140.30826 | 12117 ft | 333 kts | 335° |
| 2026-04-16 14:48 | 35.04634 | 140.28859 | 12007 ft | 354 kts | 313° |
| 2026-04-16 14:48 | 35.05718 | 140.26170 | 11594 ft | 353 kts | 294° |
| 2026-04-16 14:48 | 35.06446 | 140.23368 | 11328 ft | 338 kts | 294° |
| 2026-04-16 14:48 | 35.07187 | 140.20723 | 11116 ft | 321 kts | 297° |
| 2026-04-16 14:49 | 35.07955 | 140.18228 | 10822 ft | 308 kts | 298° |
| 2026-04-16 14:49 | 35.08743 | 140.15827 | 10493 ft | 300 kts | 299° |
| 2026-04-16 14:49 | 35.09528 | 140.13517 | 10260 ft | 290 kts | 300° |
| 2026-04-16 14:49 | 35.10302 | 140.11283 | 10090 ft | 282 kts | 301° |
| 2026-04-16 14:50 | 35.11063 | 140.09109 | 9881 ft | 277 kts | 301° |
| 2026-04-16 14:50 | 35.11858 | 140.06886 | 9608 ft | 292 kts | 301° |
| 2026-04-16 14:50 | 35.12668 | 140.04609 | 9405 ft | 290 kts | 300° |
| 2026-04-16 14:50 | 35.13466 | 140.02351 | 8850 ft | 290 kts | 300° |
| 2026-04-16 14:51 | 35.14403 | 140.00191 | 8308 ft | 283 kts | 314° |
| 2026-04-16 14:51 | 35.15841 | 139.98679 | 8022 ft | 268 kts | 339° |
| 2026-04-16 14:51 | 35.17579 | 139.98073 | 7827 ft | 255 kts | 360° |
| 2026-04-16 14:51 | 35.19334 | 139.98035 | 7353 ft | 251 kts | 6° |
| 2026-04-16 14:53 | 35.30963 | 139.94572 | 5579 ft | 253 kts | 334° |
| 2026-04-16 14:53 | 35.32465 | 139.93468 | 5155 ft | 248 kts | 335° |
| 2026-04-16 14:54 | 35.33972 | 139.92460 | 4633 ft | 246 kts | 338° |
| 2026-04-16 14:54 | 35.35497 | 139.91503 | 4129 ft | 246 kts | 335° |
| 2026-04-16 14:54 | 35.36955 | 139.90444 | 3782 ft | 240 kts | 333° |
| 2026-04-16 14:54 | 35.38362 | 139.89417 | 3502 ft | 231 kts | 335° |
| 2026-04-16 14:55 | 35.39735 | 139.88455 | 3220 ft | 223 kts | 336° |
| 2026-04-16 14:55 | 35.41057 | 139.87520 | 2936 ft | 218 kts | 336° |
| 2026-04-16 14:55 | 35.42367 | 139.86589 | 2645 ft | 218 kts | 337° |
| 2026-04-16 14:55 | 35.43668 | 139.85662 | 2339 ft | 211 kts | 337° |
| 2026-04-16 14:56 | 35.44901 | 139.84789 | 2085 ft | 197 kts | 338° |
| 2026-04-16 14:56 | 35.46040 | 139.83979 | 1832 ft | 181 kts | 338° |
| 2026-04-16 14:56 | 35.47075 | 139.83243 | 1568 ft | 168 kts | 338° |
| 2026-04-16 14:56 | 35.48064 | 139.82542 | 1340 ft | 161 kts | 337° |
| 2026-04-16 14:57 | 35.49016 | 139.81865 | 1116 ft | 155 kts | 337° |
| 2026-04-16 14:57 | 35.49946 | 139.81207 | 903 ft | 149 kts | 337° |
| 2026-04-16 14:57 | 35.50811 | 139.80591 | 696 ft | 142 kts | 335° |
| 2026-04-16 14:57 | 35.51643 | 139.79998 | 525 ft | 135 kts | 336° |
| 2026-04-16 14:58 | 35.52438 | 139.79432 | 359 ft | 130 kts | 336° |
| 2026-04-16 14:58 | 35.53980 | 139.78338 | 37 ft | 123 kts | 331° |
| 2026-04-16 14:58 | 35.54608 | 139.77898 | 31 ft | 73 kts | 331° |
| 2026-04-16 14:59 | 35.54797 | 139.77764 | 31 ft | 0 kts | 328° |
| 2026-04-16 14:59 | 35.54854 | 139.77716 | 31 ft | 28 kts | 322° |
| 2026-04-16 14:59 | 35.54998 | 139.77627 | 31 ft | 20 kts | 350° |
| 2026-04-16 14:59 | 35.55119 | 139.77627 | 30 ft | 6 kts | 8° |
| 2026-04-16 15:00 | 35.55159 | 139.77640 | 29 ft | 2 kts | 18° |
| 2026-04-16 15:00 | 35.55182 | 139.77651 | 29 ft | 0 kts | 23° |
| 2026-04-16 15:01 | 35.55204 | 139.77663 | 29 ft | 7 kts | 27° |
| 2026-04-16 15:01 | 35.55231 | 139.77684 | 30 ft | 2 kts | 35° |
| 2026-04-16 15:02 | 35.55241 | 139.77693 | 30 ft | 2 kts | 37° |
| 2026-04-16 15:02 | 35.55264 | 139.77717 | 30 ft | 7 kts | 43° |
| 2026-04-16 15:02 | 35.55276 | 139.77732 | 30 ft | 0 kts | 47° |
| 2026-04-16 15:04 | 35.55277 | 139.77734 | 30 ft | 4 kts | 47° |
| 2026-04-16 15:04 | 35.55299 | 139.77766 | 31 ft | 0 kts | 53° |
| 2026-04-16 15:11 | 35.55329 | 139.77840 | 40 ft | 25 kts | 73° |
| 2026-04-16 15:11 | 35.55337 | 139.77933 | 31 ft | 0 kts | 92° |
| 2026-04-16 15:12 | 35.55339 | 139.77914 | 31 ft | 3 kts | 122° |
| 2026-04-16 15:12 | 35.55352 | 139.77898 | 30 ft | 1 kts | 159° |
| 2026-04-16 15:12 | 35.55306 | 139.77913 | 31 ft | 20 kts | 171° |
| 2026-04-16 15:13 | 35.55270 | 139.77915 | 31 ft | 3 kts | 193° |
| 2026-04-16 15:13 | 35.55230 | 139.77891 | 31 ft | 29 kts | 204° |
| 2026-04-16 15:13 | 35.55186 | 139.77867 | 31 ft | 3 kts | 196° |
| 2026-04-16 15:13 | 35.55198 | 139.77870 | 31 ft | 1 kts | 167° |
| 2026-04-16 15:14 | 35.55183 | 139.77875 | 30 ft | 0 kts | 153° |
| 2026-04-16 15:14 | 35.55034 | 139.77977 | 31 ft | 44 kts | 149° |
| 2026-04-16 15:14 | 35.54759 | 139.78168 | 31 ft | 40 kts | 149° |
| 2026-04-16 15:14 | 35.54573 | 139.78301 | 31 ft | 28 kts | 151° |
| 2026-04-16 15:15 | 35.54421 | 139.78407 | 31 ft | 1 kts | 150° |